Weather Data

Pearl Creek Farm: 8878 N Farm Road 75, Walnut Grove MO 65770

<== Previous Day (Sunday 23 Apr 2017) | Next Day (Tuesday 25 Apr 2017) ==>

Summary Precipitation Data For Monday 24 April 2017

ElementValueUnits
PrecipitationT
Notes(none)
SourcePearl Creek Farm

Summary Temperature Data For Monday 24 April 2017

ElementValueUnits
High Temperature75 oF
Low Temperature39 oF
Average Temperature59 oF
High Humidity86 %
Low Humidity20 %
Average Humidity49 %
SourceSpringfield-Branson National Airport (SGF)

Detail Temperature Data For Monday 24 April 2017

Date / TimeTemp (F)RH (%)Dew Pt (F)Report Date / TimeSource
2017-04-24 00:52:00 43 80 37.0 2017-12-29 17:00:26.17417 Springfield-Branson National Airport (SGF)
2017-04-24 01:52:00 41 86 37.0 2017-12-29 17:00:26.17417 Springfield-Branson National Airport (SGF)
2017-04-24 02:52:00 42 85 38.0 2017-12-29 17:00:26.17417 Springfield-Branson National Airport (SGF)
2017-04-24 03:52:00 42 76 35.0 2017-12-29 17:00:26.17417 Springfield-Branson National Airport (SGF)
2017-04-24 04:52:00 39 86 35.0 2017-12-29 17:00:26.17417 Springfield-Branson National Airport (SGF)
2017-04-24 05:52:00 40 86 36.0 2017-12-29 17:00:26.17417 Springfield-Branson National Airport (SGF)
2017-04-24 06:52:00 48 80 42.0 2017-12-29 17:00:26.17417 Springfield-Branson National Airport (SGF)
2017-04-24 07:52:00 56 57 41.0 2017-12-29 17:00:26.17417 Springfield-Branson National Airport (SGF)
2017-04-24 08:52:00 62 44 40.0 2017-12-29 17:00:26.17417 Springfield-Branson National Airport (SGF)
2017-04-24 09:52:00 66 36 38.0 2017-12-29 17:00:26.17417 Springfield-Branson National Airport (SGF)
2017-04-24 10:52:00 69 31 37.0 2017-12-29 17:00:26.17417 Springfield-Branson National Airport (SGF)
2017-04-24 11:52:00 70 28 35.0 2017-12-29 17:00:26.17417 Springfield-Branson National Airport (SGF)
2017-04-24 12:52:00 72 24 33.0 2017-12-29 17:00:26.17417 Springfield-Branson National Airport (SGF)
2017-04-24 13:52:00 74 20 31.0 2017-12-29 17:00:26.17417 Springfield-Branson National Airport (SGF)
2017-04-24 14:52:00 74 26 37.0 2017-12-29 17:00:26.17417 Springfield-Branson National Airport (SGF)
2017-04-24 15:52:00 75 24 36.0 2017-12-29 17:00:26.17417 Springfield-Branson National Airport (SGF)
2017-04-24 16:52:00 74 23 34.0 2017-12-29 17:00:26.17417 Springfield-Branson National Airport (SGF)
2017-04-24 17:52:00 72 25 34.0 2017-12-29 17:00:26.17417 Springfield-Branson National Airport (SGF)
2017-04-24 18:52:00 67 32 36.0 2017-12-29 17:00:26.17417 Springfield-Branson National Airport (SGF)
2017-04-24 19:52:00 62 40 37.0 2017-12-29 17:00:26.17417 Springfield-Branson National Airport (SGF)
2017-04-24 20:52:00 61 44 39.0 2017-12-29 17:00:26.17417 Springfield-Branson National Airport (SGF)
2017-04-24 21:52:00 58 50 39.0 2017-12-29 17:00:26.17417 Springfield-Branson National Airport (SGF)
2017-04-24 22:52:00 59 46 38.0 2017-12-29 17:00:26.17417 Springfield-Branson National Airport (SGF)
2017-04-24 23:52:00 60 44 38.0 2017-12-29 17:00:26.17417 Springfield-Branson National Airport (SGF)

A total of 24 rows are displayed.